Time,TemperatureF,DewpointF,PressureIn,WindDirection,WindDirectionDegrees,WindSpeedMPH,WindSpeedGustMPH,Humidity,HourlyPrecipIn,Conditions,Clouds,dailyrainin,SoftwareType,DateUTC
2013-07-20 00:12:00,84.2,77.0,29.60,SSW,211,0.0,-999.0,80,-99.99,,,0.00,weatherlink.com 1.10,2013-07-20 04:12:00,
2013-07-20 00:27:00,84.0,77.0,29.60,SSW,213,0.0,-999.0,80,-99.99,,,0.00,weatherlink.com 1.10,2013-07-20 04:27:00,
2013-07-20 00:42:00,83.9,77.0,29.60,SSW,202,0.0,-999.0,80,-99.99,,,0.00,weatherlink.com 1.10,2013-07-20 04:42:00,
2013-07-20 00:57:00,83.8,75.0,29.61,NE,35,0.0,-999.0,74,-99.99,,,0.00,weatherlink.com 1.10,2013-07-20 04:57:00,
2013-07-20 01:12:00,83.5,71.0,29.60,ENE,59,0.0,-999.0,67,-99.99,,,0.00,weatherlink.com 1.10,2013-07-20 05:12:00,
2013-07-20 01:27:00,82.3,69.0,29.61,ESE,110,0.0,-999.0,65,-99.99,,,0.00,weatherlink.com 1.10,2013-07-20 05:27:00,
2013-07-20 01:42:00,81.1,68.0,29.60,ESE,119,0.0,-999.0,65,-99.99,,,0.00,weatherlink.com 1.10,2013-07-20 05:42:00,
2013-07-20 01:57:00,79.9,68.0,29.59,SSW,213,0.0,-999.0,67,-99.99,,,0.00,weatherlink.com 1.10,2013-07-20 05:57:00,
2013-07-20 02:12:00,79.3,68.0,29.59,WSW,255,0.0,-999.0,68,-99.99,,,0.00,weatherlink.com 1.10,2013-07-20 06:12:00,
2013-07-20 02:27:00,79.4,67.0,29.58,WNW,302,0.0,-999.0,66,-99.99,,,0.00,weatherlink.com 1.10,2013-07-20 06:27:00,
2013-07-20 02:42:00,79.1,67.0,29.58,SSW,205,0.0,-999.0,67,-99.99,,,0.00,weatherlink.com 1.10,2013-07-20 06:42:00,
2013-07-20 02:57:00,79.3,67.0,29.58,West,274,0.0,-999.0,66,-99.99,,,0.00,weatherlink.com 1.10,2013-07-20 06:57:00,
2013-07-20 03:12:00,79.4,67.0,29.57,SW,236,0.0,-999.0,65,-99.99,,,0.00,weatherlink.com 1.10,2013-07-20 07:12:00,
2013-07-20 03:27:00,79.4,67.0,29.57,WSW,247,0.0,-999.0,66,-99.99,,,0.00,weatherlink.com 1.10,2013-07-20 07:27:00,
2013-07-20 03:42:00,79.2,67.0,29.57,SW,230,0.0,-999.0,67,-99.99,,,0.00,weatherlink.com 1.10,2013-07-20 07:42:00,
2013-07-20 03:57:00,79.3,68.0,29.58,WSW,248,0.0,-999.0,69,-99.99,,,0.00,weatherlink.com 1.10,2013-07-20 07:57:00,
2013-07-20 04:12:00,79.5,68.0,29.57,WSW,244,0.0,-999.0,69,-99.99,,,0.00,weatherlink.com 1.10,2013-07-20 08:12:00,
2013-07-20 04:27:00,79.9,68.0,29.58,WSW,254,0.0,-999.0,66,-99.99,,,0.00,weatherlink.com 1.10,2013-07-20 08:27:00,
2013-07-20 04:42:00,80.0,68.0,29.57,SW,227,0.0,-999.0,67,-99.99,,,0.00,weatherlink.com 1.10,2013-07-20 08:42:00,
2013-07-20 04:57:00,79.0,68.0,29.58,SSE,150,0.0,-999.0,69,-99.99,,,0.00,weatherlink.com 1.10,2013-07-20 08:57:00,
2013-07-20 05:12:00,78.2,68.0,29.58,WSW,257,0.0,-999.0,71,-99.99,,,0.00,weatherlink.com 1.10,2013-07-20 09:12:00,
2013-07-20 05:27:00,77.5,68.0,29.58,WSW,241,0.0,-999.0,73,-99.99,,,0.00,weatherlink.com 1.10,2013-07-20 09:27:00,
2013-07-20 05:42:00,76.9,68.0,29.58,NNW,329,0.0,-999.0,74,-99.99,,,0.00,weatherlink.com 1.10,2013-07-20 09:42:00,
2013-07-20 05:57:00,76.8,68.0,29.59,SW,221,0.0,-999.0,75,-99.99,,,0.00,weatherlink.com 1.10,2013-07-20 09:57:00,
2013-07-20 06:12:00,76.9,69.0,29.59,SW,230,0.0,-999.0,76,-99.99,,,0.00,weatherlink.com 1.10,2013-07-20 10:12:00,
2013-07-20 06:27:00,77.5,69.0,29.59,North,360,0.0,-999.0,76,-99.99,,,0.00,weatherlink.com 1.10,2013-07-20 10:27:00,
2013-07-20 06:42:00,78.2,70.0,29.59,North,360,0.0,-999.0,75,-99.99,,,0.00,weatherlink.com 1.10,2013-07-20 10:42:00,
2013-07-20 06:57:00,78.9,70.0,29.60,SW,221,0.0,-999.0,75,-99.99,,,0.00,weatherlink.com 1.10,2013-07-20 10:57:00,
2013-07-20 07:12:00,79.2,70.0,29.60,West,259,0.0,-999.0,74,-99.99,,,0.00,weatherlink.com 1.10,2013-07-20 11:12:00,
2013-07-20 07:27:00,79.3,71.0,29.60,SW,232,0.0,-999.0,75,-99.99,,,0.00,weatherlink.com 1.10,2013-07-20 11:27:00,
2013-07-20 07:42:00,80.2,71.0,29.60,North,360,0.0,-999.0,74,-99.99,,,0.00,weatherlink.com 1.10,2013-07-20 11:42:00,
2013-07-20 07:57:00,80.0,72.0,29.60,North,360,0.0,-999.0,76,-99.99,,,0.00,weatherlink.com 1.10,2013-07-20 11:57:00,
2013-07-20 08:12:00,80.3,72.0,29.60,West,277,0.0,-999.0,75,-99.99,,,0.00,weatherlink.com 1.10,2013-07-20 12:12:00,
2013-07-20 08:27:00,80.7,72.0,29.61,SW,225,0.0,-999.0,74,-99.99,,,0.00,weatherlink.com 1.10,2013-07-20 12:27:00,
2013-07-20 08:42:00,81.2,73.0,29.61,East,96,0.0,-999.0,77,-99.99,,,0.00,weatherlink.com 1.10,2013-07-20 12:42:00,
2013-07-20 08:57:00,81.6,73.0,29.60,East,98,0.0,-999.0,76,-99.99,,,0.00,weatherlink.com 1.10,2013-07-20 12:57:00,
2013-07-20 09:12:00,82.4,73.0,29.60,South,191,0.0,-999.0,73,-99.99,,,0.00,weatherlink.com 1.10,2013-07-20 13:12:00,
2013-07-20 09:27:00,82.7,74.0,29.60,SSE,155,0.0,-999.0,75,-99.99,,,0.00,weatherlink.com 1.10,2013-07-20 13:27:00,
2013-07-20 09:42:00,83.6,75.0,29.59,NW,323,0.0,-999.0,75,-99.99,,,0.00,weatherlink.com 1.10,2013-07-20 13:42:00,
2013-07-20 09:57:00,83.8,74.0,29.59,NNE,30,0.0,-999.0,73,-99.99,,,0.00,weatherlink.com 1.10,2013-07-20 13:57:00,
2013-07-20 10:12:00,86.0,75.0,29.58,North,360,0.0,-999.0,70,-99.99,,,0.00,weatherlink.com 1.10,2013-07-20 14:12:00,
2013-07-20 10:27:00,85.8,76.0,29.58,SSW,198,0.0,-999.0,72,-99.99,,,0.00,weatherlink.com 1.10,2013-07-20 14:27:00,
2013-07-20 10:42:00,86.4,75.0,29.58,North,360,0.0,-999.0,69,-99.99,,,0.00,weatherlink.com 1.10,2013-07-20 14:42:00,
2013-07-20 10:57:00,87.4,75.0,29.57,North,360,0.0,-999.0,66,-99.99,,,0.00,weatherlink.com 1.10,2013-07-20 14:57:00,
2013-07-20 11:12:00,87.7,75.0,29.58,North,360,0.0,-999.0,65,-99.99,,,0.00,weatherlink.com 1.10,2013-07-20 15:12:00,
2013-07-20 11:27:00,88.3,74.0,29.57,North,360,0.0,-999.0,62,-99.99,,,0.00,weatherlink.com 1.10,2013-07-20 15:27:00,
2013-07-20 11:42:00,88.5,74.0,29.57,North,360,0.0,-999.0,62,-99.99,,,0.00,weatherlink.com 1.10,2013-07-20 15:42:00,
2013-07-20 11:57:00,88.8,74.0,29.57,North,360,0.0,-999.0,61,-99.99,,,0.00,weatherlink.com 1.10,2013-07-20 15:57:00,
2013-07-20 12:12:00,89.5,74.0,29.56,North,360,0.0,-999.0,61,-99.99,,,0.00,weatherlink.com 1.10,2013-07-20 16:12:00,
2013-07-20 12:27:00,89.0,74.0,29.56,North,360,0.0,-999.0,61,-99.99,,,0.00,weatherlink.com 1.10,2013-07-20 16:27:00,
2013-07-20 12:42:00,89.5,74.0,29.56,North,360,0.0,-999.0,60,-99.99,,,0.00,weatherlink.com 1.10,2013-07-20 16:42:00,
2013-07-20 12:57:00,90.5,77.0,29.55,North,360,0.0,-999.0,65,-99.99,,,0.00,weatherlink.com 1.10,2013-07-20 16:57:00,
2013-07-20 13:12:00,90.8,75.0,29.55,North,360,0.0,-999.0,61,-99.99,,,0.00,weatherlink.com 1.10,2013-07-20 17:12:00,
2013-07-20 13:27:00,91.2,75.0,29.54,North,360,0.0,-999.0,60,-99.99,,,0.00,weatherlink.com 1.10,2013-07-20 17:27:00,
2013-07-20 13:42:00,90.8,76.0,29.54,North,360,0.0,-999.0,63,-99.99,,,0.00,weatherlink.com 1.10,2013-07-20 17:42:00,
2013-07-20 13:57:00,89.3,76.0,29.54,WSW,243,0.0,-999.0,64,-99.99,,,0.00,weatherlink.com 1.10,2013-07-20 17:57:00,
2013-07-20 14:12:00,90.4,76.0,29.53,North,360,0.0,-999.0,62,-99.99,,,0.00,weatherlink.com 1.10,2013-07-20 18:12:00,
2013-07-20 14:27:00,83.3,74.0,29.55,West,271,0.0,-999.0,73,-99.99,,,0.25,weatherlink.com 1.10,2013-07-20 18:27:00,
2013-07-20 14:42:00,73.7,70.0,29.53,SW,225,0.0,-999.0,89,-99.99,,,0.48,weatherlink.com 1.10,2013-07-20 18:42:00,
2013-07-20 14:57:00,75.7,74.0,29.53,WSW,243,0.0,-999.0,95,-99.99,,,0.48,weatherlink.com 1.10,2013-07-20 18:57:00,
2013-07-20 15:12:00,79.3,78.0,29.52,SW,217,0.0,-999.0,95,-99.99,,,0.48,weatherlink.com 1.10,2013-07-20 19:12:00,
2013-07-20 15:27:00,80.5,79.0,29.53,WSW,244,0.0,-999.0,94,-99.99,,,0.48,weatherlink.com 1.10,2013-07-20 19:27:00,
2013-07-20 15:42:00,82.1,80.0,29.53,North,360,0.0,-999.0,93,-99.99,,,0.48,weatherlink.com 1.10,2013-07-20 19:42:00,
2013-07-20 15:57:00,82.9,79.0,29.52,North,360,0.0,-999.0,87,-99.99,,,0.48,weatherlink.com 1.10,2013-07-20 19:57:00,
2013-07-20 16:12:00,83.9,79.0,29.53,North,360,0.0,-999.0,84,-99.99,,,0.48,weatherlink.com 1.10,2013-07-20 20:12:00,
2013-07-20 16:27:00,84.3,75.0,29.53,North,360,0.0,-999.0,74,-99.99,,,0.48,weatherlink.com 1.10,2013-07-20 20:27:00,
2013-07-20 16:42:00,85.2,76.0,29.53,North,360,0.0,-999.0,73,-99.99,,,0.48,weatherlink.com 1.10,2013-07-20 20:42:00,
2013-07-20 16:57:00,84.9,75.0,29.55,WSW,250,0.0,-999.0,71,-99.99,,,0.48,weatherlink.com 1.10,2013-07-20 20:57:00,
2013-07-20 17:12:00,84.4,75.0,29.55,South,180,0.0,-999.0,73,-99.99,,,0.48,weatherlink.com 1.10,2013-07-20 21:12:00,
2013-07-20 17:27:00,84.3,75.0,29.56,SSW,198,0.0,-999.0,74,-99.99,,,0.48,weatherlink.com 1.10,2013-07-20 21:27:00,
2013-07-20 17:42:00,84.3,76.0,29.56,SSW,196,0.0,-999.0,76,-99.99,,,0.48,weatherlink.com 1.10,2013-07-20 21:42:00,
2013-07-20 17:57:00,83.0,75.0,29.56,SW,227,0.0,-999.0,77,-99.99,,,0.48,weatherlink.com 1.10,2013-07-20 21:57:00,
2013-07-20 18:12:00,82.2,75.0,29.56,West,265,0.0,-999.0,78,-99.99,,,0.48,weatherlink.com 1.10,2013-07-20 22:12:00,
2013-07-20 18:42:00,81.0,74.0,29.56,West,264,0.0,-999.0,80,-99.99,,,0.48,weatherlink.com 1.10,2013-07-20 22:42:00,
2013-07-20 18:57:00,80.4,73.0,29.56,WSW,246,0.0,-999.0,79,-99.99,,,0.48,weatherlink.com 1.10,2013-07-20 22:57:00,
2013-07-20 19:12:00,80.5,74.0,29.57,WSW,245,0.0,-999.0,81,-99.99,,,0.48,weatherlink.com 1.10,2013-07-20 23:12:00,
2013-07-20 19:27:00,80.5,75.0,29.58,NNE,13,0.0,-999.0,82,-99.99,,,0.48,weatherlink.com 1.10,2013-07-20 23:27:00,
2013-07-20 19:42:00,80.3,73.0,29.59,NNE,24,0.0,-999.0,79,-99.99,,,0.48,weatherlink.com 1.10,2013-07-20 23:42:00,
2013-07-20 19:57:00,80.0,73.0,29.59,NNE,31,0.0,-999.0,80,-99.99,,,0.48,weatherlink.com 1.10,2013-07-20 23:57:00,
2013-07-20 20:12:00,79.2,71.0,29.59,West,268,0.0,-999.0,77,-99.99,,,0.48,weatherlink.com 1.10,2013-07-21 00:12:00,
2013-07-20 20:27:00,78.5,71.0,29.60,NNW,327,0.0,-999.0,77,-99.99,,,0.48,weatherlink.com 1.10,2013-07-21 00:27:00,
2013-07-20 20:42:00,78.3,70.0,29.61,West,272,0.0,-999.0,75,-99.99,,,0.48,weatherlink.com 1.10,2013-07-21 00:42:00,
2013-07-20 20:57:00,78.5,70.0,29.62,SSW,202,0.0,-999.0,75,-99.99,,,0.48,weatherlink.com 1.10,2013-07-21 00:57:00,
2013-07-20 21:12:00,78.3,69.0,29.62,WSW,245,0.0,-999.0,74,-99.99,,,0.48,weatherlink.com 1.10,2013-07-21 01:12:00,
2013-07-20 21:27:00,77.6,69.0,29.63,WSW,242,0.0,-999.0,75,-99.99,,,0.48,weatherlink.com 1.10,2013-07-21 01:27:00,
2013-07-20 21:42:00,76.6,69.0,29.64,WSW,242,0.0,-999.0,76,-99.99,,,0.48,weatherlink.com 1.10,2013-07-21 01:42:00,
2013-07-20 21:57:00,75.8,68.0,29.64,WSW,242,0.0,-999.0,77,-99.99,,,0.48,weatherlink.com 1.10,2013-07-21 01:57:00,
2013-07-20 22:42:00,74.0,68.0,29.65,WSW,241,0.0,-999.0,81,-99.99,,,0.48,weatherlink.com 1.10,2013-07-21 02:42:00,
2013-07-20 22:57:00,74.0,68.0,29.66,SSE,157,0.0,-999.0,80,-99.99,,,0.48,weatherlink.com 1.10,2013-07-21 02:57:00,
2013-07-20 23:12:00,74.1,68.0,29.66,SSW,205,0.0,-999.0,82,-99.99,,,0.48,weatherlink.com 1.10,2013-07-21 03:12:00,
2013-07-20 23:27:00,73.8,68.0,29.67,SW,216,0.0,-999.0,82,-99.99,,,0.48,weatherlink.com 1.10,2013-07-21 03:27:00,
2013-07-20 23:42:00,73.0,68.0,29.67,SW,216,0.0,-999.0,83,-99.99,,,0.48,weatherlink.com 1.10,2013-07-21 03:42:00,